Ana Sayfa
METAR-TAF:

METAR-TAF

Havaalanları :

Joliet Regional Airport

Joliet, Illinois, Amerika Birleşik Devletleri

Enlem: 41-31-05N, Boylam: 088-10-31W, yükseklik: 177 m

Güncel hava durumu gözlemi

Rapor saat 23:55 UTC de 21 dakika önce yapıldı.
Rüzgar kuzeydoğudan 11 kt
Sıcaklık 21°C
Nem 56%
Basınç 1023 hPa
Görüş mesafesi: 16.1 km
Açık gökyüzü

METAR: KJOT 232355Z AUTO 04011KT 10SM CLR 21/12 A3020 RMK AO2 T02130119 10252 20213

Saat: 19:16 (00:16 UTC)


TAF: eksik

4.000'den fazla havaalanı için hava durumu gözlemleri ve tahminleri (METAR ve TAF raporları).

Kullanılabilir istasyonlar harita üzerinde sarı ve kırmızı noktalarla gösterilir.

İstasyonun adını görmek için fareyi noktanın üzerinde gezdirin.

Sonrasında hava gözlem ve tahminlerini görmek için tıklayın.

Haritayı değiştirmek için: yaklaştırmak için siyah artı işaretli yeşil düğmeye ve uzaklaştırmak için de eksi işaretli düğmeye hızla tıklayın; bitişik haritalar için yeşil okları kullanın.


METAR-TAF: